Airfield :
LOGIN :

Register | Disclaimer

   EN    FR    IT 

 










Legend :    VFR   Marginal VFR   IFR   Intensive IFR   Very Intensive IFR
Visi :
Ceiling :
>= 8 km
>= 3000ft
5 to 8 km
1000 to 3000 ft
1500m to 5 km
500 to 1000 ft
800 to 1500m
200 to 500 ft
< 800m
< 200 ft
Symbols :   Thunderstorms  Fog  Heavy snow  Heavy precipitations  Wind > 20 kt
SIGMETs :     Misc.  Thunderstorms  Icing  Turbulence  Mountain Waves  Volcanic Ashes







- Airport Elevation : 55 ft
- IATA code : DSA
- Download approach charts


EGCN - Robin Hood Doncaster Sheffield

CURRENT METAR :
  • 180720Z 28012KT CAVOK 03/01 Q0995

EXPIRED METARs :
  • 180650Z 29014KT 9999 FEW015 03/01 Q0994
  • 180620Z 30017G28KT 9999 SCT012 BKN017 03/02 Q0993
  • 180550Z 31023KT 9999 FEW008 SCT012 03/02 Q0991
  • 180520Z 31027G38KT 9999 SCT026 BKN036 03/02 Q0989
  • 180450Z 31024KT 9999 SCT026 BKN036 03/02 Q0985

TAF TAF EGCN
Valid from the 18 at 06:00 until the 19 at 06:00 UTC


180502Z 1806/1906 31022G32KT 9999 FEW010 SCT025
BECMG 1806/1809 28012KT
PROB30
TEMPO 1806/1807 30032G42KT 6000 RA BKN008
PROB30
TEMPO 1809/1824 8000 SHRA BKN014
BECMG 1900/1903 21005KT
PROB30
TEMPO 1900/1906 4000 -SHSN BKN003
No reported NOTAMs for that airfield.
1 SIGMET reported for the London FIR (EGTT) :
 
Severe turbulence
EGTT SIGMET 04 VALID 180640/181030 EGRR
EGTT LONDON FIR SEV TURB FCST E OF LINE N4955 W00225 - N5500 W00311 SFC/FL060 MOV E 45KT INTSF=



MET'MAP, your aeronautical weather chart ! - Copyright ORBIFLY December 2007 - Disclaimer

ORBIFLY MET'MAP TEAM :

Programming & Development : Alexandra Zaïnal
Concept & Development : Baudouin d'Aumeries
Co-Development & Prog : Marc-Olivier Méhu
Technical & hardware support : Manuel Goepfert

Contact : metmap@orbifly.com




SOURCES & CREDITS :

   NOAA